Schedule Details


Flight Number: CTN470
Departure: Franjo Tudman (LDZA) at 09:00
Arrival: Charles-de-gaulle (LFPG) at 11:05
Route: PODET DCT TIBRO/N0453F380 UY9 NAXAV UZ613 RONAG UL613 HOC UL856 MOROK/N0454F360 UL856 PENDU/N0459F330 UL856 GIVRI/N0458F320 UM982 TINIL

Weather Information
LDZA 221530Z 21005KT CAVOK 19/11 Q1016 NOSIG
LFPG 221530Z 19009KT 9999 SCT010 BKN120 17/15 Q1009 NOSIG
Schedule Frequency

Route Map